Time;durP1;ratioP1;P1;durP2;ratioP2;P2;SDS_P1;SDS_P2;PMS_P1;PMS_P2;Temp;Humidity;BMP_temperature;BMP_pressure;BME280_temperature;BME280_humidity;BME280_pressure;Samples;Min_cycle;Max_cycle;Signal;HPM_P1;HPM_P2
2022/12/15 00:40:34;;;;;;;;;49.50;38.25;;;;;4.63;53.68;45401.69;5020490;28;45601;-86
2022/12/15 00:42:59;;;;;;;;;45.50;37.25;;;;;4.57;53.61;45092.31;5015578;28;45560;-85
2022/12/15 00:46:53;;;;;;;;;55.00;40.00;;;;;4.21;53.62;44765.53;5025827;28;45532;-85
2022/12/15 00:48:10;;;;;;;;;45.00;38.00;;;;;4.68;53.48;44663.75;5022577;28;45880;-87
2022/12/15 00:50:51;;;;;;;;;49.50;40.25;;;;;4.54;53.58;44493.88;5027244;28;45587;-86
2022/12/15 01:20:36;;;;;;;;;47.50;40.50;;;;;4.43;54.38;44438.75;5025637;28;45542;-86
2022/12/15 01:23:02;;;;;;;;;54.50;43.75;;;;;4.33;54.86;44535.34;5023011;28;45836;-86
2022/12/15 01:25:27;;;;;;;;;49.50;43.75;;;;;4.02;54.61;44581.78;5018187;28;45584;-86
2022/12/15 01:27:53;;;;;;;;;55.25;40.00;;;;;4.30;54.57;44418.47;5019528;28;45593;-85
2022/12/15 01:30:22;;;;;;;;;50.50;42.00;;;;;3.82;55.33;44329.44;5019860;28;45522;-86
2022/12/15 01:32:47;;;;;;;;;45.00;38.50;;;;;3.88;54.90;44178.19;5023254;28;45598;-86
2022/12/15 01:35:13;;;;;;;;;37.75;32.75;;;;;4.35;55.03;44193.50;5025820;28;46084;-87
2022/12/15 01:37:39;;;;;;;;;52.75;41.75;;;;;4.18;54.93;43821.28;5018580;28;47170;-86
2022/12/15 01:42:50;;;;;;;;;48.50;39.25;;;;;4.08;55.19;44037.47;5026639;28;45708;-85
2022/12/15 01:45:28;;;;;;;;;43.25;39.50;;;;;4.20;55.14;43997.47;5008240;28;47255;-85
2022/12/15 01:48:06;;;;;;;;;53.50;42.50;;;;;3.91;55.47;44052.75;5024119;28;45542;-86
2022/12/15 01:50:38;;;;;;;;;44.25;38.50;;;;;4.05;55.15;43842.75;5022056;28;45583;-86
2022/12/15 01:53:04;;;;;;;;;46.00;38.75;;;;;4.00;55.23;43789.44;5022155;28;45391;-87
2022/12/15 01:55:31;;;;;;;;;44.25;38.00;;;;;4.14;55.15;43914.38;5006296;28;48316;-86
2022/12/15 01:58:02;;;;;;;;;46.50;40.25;;;;;3.97;54.95;43938.25;5020639;28;45533;-86
2022/12/15 02:00:28;;;;;;;;;46.75;41.25;;;;;3.33;54.95;44188.13;5004198;28;45702;-86
2022/12/15 02:02:55;;;;;;;;;51.25;40.75;;;;;3.63;54.85;43890.91;5022372;28;45503;-86
2022/12/15 02:05:21;;;;;;;;;39.75;37.50;;;;;4.05;54.80;43904.72;5003837;28;48358;-86
2022/12/15 02:07:46;;;;;;;;;48.25;39.50;;;;;3.55;54.83;43937.41;5018284;28;45522;-86
2022/12/15 02:10:12;;;;;;;;;45.75;37.50;;;;;3.41;55.26;43936.88;4999797;28;46089;-85
2022/12/15 02:13:01;;;;;;;;;47.25;39.75;;;;;4.10;55.40;43872.63;5002450;28;45527;-86
2022/12/15 02:15:36;;;;;;;;;49.75;41.25;;;;;4.08;55.10;44011.47;5002100;28;47707;-87
2022/12/15 02:18:55;;;;;;;;;48.75;41.25;;;;;4.02;55.50;44396.78;4991318;28;45938;-86
2022/12/15 02:21:38;;;;;;;;;47.00;39.00;;;;;3.42;55.23;44205.19;4931975;28;45897;-86
2022/12/15 02:24:18;;;;;;;;;48.50;40.50;;;;;4.00;55.46;43917.22;4930919;28;45525;-86
2022/12/15 02:26:59;;;;;;;;;51.75;39.25;;;;;3.77;55.58;43858.06;4931439;28;47015;-85
2022/12/15 02:30:05;;;;;;;;;56.50;43.00;;;;;3.97;55.73;43922.66;4932436;28;45847;-88
2022/12/15 02:32:42;;;;;;;;;48.75;40.00;;;;;3.98;56.03;43374.97;4931448;28;45637;-87
2022/12/15 02:35:21;;;;;;;;;51.00;42.50;;;;;3.47;55.95;43258.06;4914764;28;45743;-86
2022/12/15 02:37:46;;;;;;;;;53.25;43.50;;;;;3.94;55.65;43124.56;4932162;28;46409;-86
2022/12/15 02:40:12;;;;;;;;;46.50;38.50;;;;;3.22;55.83;42953.66;4934090;28;45477;-86
2022/12/15 02:42:42;;;;;;;;;47.75;39.25;;;;;3.38;55.67;43122.06;4935446;28;45391;-86
2022/12/15 02:45:12;;;;;;;;;42.00;37.00;;;;;3.66;56.20;43020.34;4935528;28;45394;-86
2022/12/15 02:48:09;;;;;;;;;56.50;43.50;;;;;3.16;55.98;43048.47;4938088;28;46569;-86
2022/12/15 02:50:59;;;;;;;;;51.00;43.25;;;;;3.23;56.14;43008.94;4934902;28;46142;-85
2022/12/15 02:53:27;;;;;;;;;45.00;40.25;;;;;3.83;56.29;42734.53;5022534;28;45697;-86
2022/12/15 02:56:16;;;;;;;;;44.00;37.00;;;;;3.79;55.93;42754.88;5018148;28;45501;-85
2022/12/15 02:59:09;;;;;;;;;51.00;41.50;;;;;3.52;56.21;42750.66;5010188;28;48279;-86
2022/12/15 03:01:56;;;;;;;;;55.00;43.75;;;;;3.77;56.29;42691.00;5006640;28;45572;-86
2022/12/15 03:04:22;;;;;;;;;48.25;41.00;;;;;3.63;56.23;42810.63;5024454;28;45572;-86
2022/12/15 03:06:59;;;;;;;;;47.00;40.75;;;;;3.70;56.00;42797.78;5001351;28;45555;-85
2022/12/15 03:09:24;;;;;;;;;52.25;42.00;;;;;3.33;56.18;42634.97;5009216;28;48190;-85
2022/12/15 03:11:49;;;;;;;;;51.25;41.25;;;;;3.02;56.30;42832.34;5005145;28;45506;-86
2022/12/15 03:14:15;;;;;;;;;56.25;44.25;;;;;3.48;56.71;42677.13;4999058;28;45766;-85
2022/12/15 03:16:41;;;;;;;;;54.00;42.00;;;;;2.79;56.45;42685.88;5020843;28;45806;-85
2022/12/15 03:19:06;;;;;;;;;53.75;43.50;;;;;3.58;56.41;42336.72;5004923;28;46192;-85
2022/12/15 03:21:31;;;;;;;;;49.75;42.50;;;;;3.35;56.55;42239.28;5005815;28;45654;-87
2022/12/15 03:23:56;;;;;;;;;54.75;43.00;;;;;3.44;56.71;41773.16;5006110;28;45582;-86
2022/12/15 03:26:22;;;;;;;;;50.50;44.25;;;;;3.27;56.79;41859.88;5004549;28;45733;-86
2022/12/15 03:28:47;;;;;;;;;50.00;44.25;;;;;3.19;56.86;41929.16;5008774;28;47431;-86
2022/12/15 03:31:12;;;;;;;;;54.75;43.25;;;;;3.25;56.67;41557.34;5022807;28;45930;-86
2022/12/15 03:33:38;;;;;;;;;60.00;44.50;;;;;3.38;56.57;41275.91;5023757;28;45695;-85
2022/12/15 03:36:04;;;;;;;;;52.00;42.25;;;;;3.29;57.10;41222.94;5024301;28;45832;-84
2022/12/15 03:38:29;;;;;;;;;48.50;43.00;;;;;2.87;57.00;41086.47;5023628;28;45679;-87
2022/12/15 03:40:55;;;;;;;;;41.00;38.00;;;;;3.34;56.94;40725.78;5009959;28;45563;-86
2022/12/15 03:43:21;;;;;;;;;52.75;42.25;;;;;2.99;57.34;40355.41;5006053;28;45494;-87
2022/12/15 03:45:46;;;;;;;;;58.50;46.25;;;;;3.48;57.08;39975.19;5006130;28;47008;-88
2022/12/15 03:48:11;;;;;;;;;51.75;43.50;;;;;2.72;57.17;39976.38;5024723;28;46267;-85
2022/12/15 03:50:37;;;;;;;;;54.75;41.00;;;;;2.87;57.03;40443.41;5005024;28;45566;-85
2022/12/15 03:53:04;;;;;;;;;53.00;44.00;;;;;3.50;56.99;40207.22;5024356;28;46013;-86
2022/12/15 03:55:30;;;;;;;;;56.00;44.25;;;;;3.51;56.83;40161.59;5008015;28;45519;-86
2022/12/15 03:57:56;;;;;;;;;55.50;43.25;;;;;3.51;56.97;40127.84;5002773;28;47678;-86
2022/12/15 04:00:23;;;;;;;;;46.50;39.25;;;;;3.51;57.15;40563.88;5021445;28;45557;-87
2022/12/15 04:02:49;;;;;;;;;53.00;43.00;;;;;3.41;56.92;40878.44;5026111;28;45559;-86
2022/12/15 04:05:19;;;;;;;;;54.00;43.50;;;;;3.46;56.80;40671.84;5023699;28;45452;-87
2022/12/15 04:07:44;;;;;;;;;59.25;46.50;;;;;3.36;56.81;40537.44;5022568;28;46607;-87
2022/12/15 04:10:11;;;;;;;;;59.75;46.00;;;;;3.40;56.73;40213.03;5004838;28;45550;-86
2022/12/15 04:12:38;;;;;;;;;48.00;41.00;;;;;2.97;56.98;40084.66;5006758;28;45550;-85
2022/12/15 04:15:05;;;;;;;;;56.75;42.75;;;;;3.53;56.86;39763.38;5022389;28;46778;-85
2022/12/15 04:17:31;;;;;;;;;56.25;45.75;;;;;3.08;56.67;39597.22;5018707;28;46664;-87
2022/12/15 04:20:08;;;;;;;;;57.25;44.75;;;;;3.07;56.89;39570.25;4999708;28;45673;-87
2022/12/15 04:22:39;;;;;;;;;52.75;43.75;;;;;3.57;56.92;39844.06;5000671;28;45489;-88
2022/12/15 05:33:32;;;;;;;;;53.75;44.25;;;;;3.19;56.12;40130.84;5023279;28;45577;-87
2022/12/15 05:35:58;;;;;;;;;54.25;43.00;;;;;3.49;56.20;40077.13;5021775;28;45604;-88
2022/12/15 05:38:23;;;;;;;;;53.25;42.75;;;;;3.28;56.04;40100.97;5011852;28;45569;-88
2022/12/15 05:40:48;;;;;;;;;50.50;42.75;;;;;3.11;56.12;40110.25;5023585;28;45502;-87
2022/12/15 05:43:14;;;;;;;;;47.25;40.50;;;;;3.02;56.37;40036.00;5003920;28;47314;-88
2022/12/15 05:45:39;;;;;;;;;54.25;41.75;;;;;2.94;56.21;39983.97;5017986;28;45586;-87
2022/12/15 05:48:05;;;;;;;;;51.50;43.75;;;;;3.25;56.09;40049.88;5004291;28;45475;-88
2022/12/15 05:50:30;;;;;;;;;52.75;42.00;;;;;3.32;56.10;39951.13;5003785;28;45730;-88
2022/12/15 05:52:57;;;;;;;;;54.50;44.25;;;;;3.42;56.57;40276.72;5019772;28;45694;-88
2022/12/15 05:55:22;;;;;;;;;49.25;43.25;;;;;3.16;56.39;40196.47;5023764;28;45885;-86
2022/12/15 05:57:52;;;;;;;;;54.50;40.50;;;;;3.25;56.60;40275.22;4998783;28;45521;-86
2022/12/15 06:00:18;;;;;;;;;55.50;43.75;;;;;3.47;56.13;40428.63;5013187;28;45448;-86
2022/12/15 06:02:44;;;;;;;;;46.75;39.75;;;;;3.45;56.69;40473.53;5015397;28;48268;-86
2022/12/15 06:05:09;;;;;;;;;52.50;43.50;;;;;2.89;56.20;40807.50;5019675;28;45535;-85
2022/12/15 06:07:36;;;;;;;;;54.50;43.75;;;;;2.83;56.87;40608.66;5022182;28;45514;-86
2022/12/15 06:10:01;;;;;;;;;56.00;40.00;;;;;3.34;56.52;41065.72;5016807;28;45816;-86
2022/12/15 06:12:27;;;;;;;;;43.25;35.50;;;;;3.27;56.54;41270.78;4995899;28;47721;-85
2022/12/15 06:14:52;;;;;;;;;48.75;40.00;;;;;2.78;56.00;41655.13;5003456;28;45669;-85
2022/12/15 06:17:18;;;;;;;;;52.75;44.25;;;;;3.12;56.40;41151.13;5019026;28;46399;-96
2022/12/15 06:19:43;;;;;;;;;47.50;40.50;;;;;3.15;56.37;41038.81;5002974;28;45532;-89
2022/12/15 06:22:09;;;;;;;;;53.50;40.50;;;;;2.99;56.63;41120.81;5016375;28;45481;-88
2022/12/15 06:24:34;;;;;;;;;57.75;44.75;;;;;2.67;56.54;41038.06;4998094;28;45520;-84
2022/12/15 06:27:00;;;;;;;;;49.00;40.25;;;;;2.80;56.28;41000.56;5017664;28;46965;-84
2022/12/15 06:29:25;;;;;;;;;51.75;44.25;;;;;2.93;56.71;40878.22;4998735;28;46772;-86
2022/12/15 06:31:50;;;;;;;;;55.50;44.25;;;;;3.18;56.41;40903.50;5003837;28;47474;-86
2022/12/15 06:34:16;;;;;;;;;44.25;39.25;;;;;3.36;56.47;41290.38;5004965;28;45539;-86
2022/12/15 06:36:42;;;;;;;;;49.00;40.00;;;;;3.36;56.33;41368.25;5018462;28;45570;-86
2022/12/15 06:39:12;;;;;;;;;54.25;42.00;;;;;3.22;56.62;41303.06;5018844;28;45576;-86
2022/12/15 06:41:38;;;;;;;;;54.00;44.00;;;;;3.33;56.46;40987.13;5015340;28;45519;-87
2022/12/15 06:44:04;;;;;;;;;49.50;40.50;;;;;3.06;56.65;40928.47;5009879;28;45775;-86
2022/12/15 06:46:31;;;;;;;;;28.25;24.25;;;;;2.70;56.73;41025.09;4995935;28;45648;-87
2022/12/15 06:48:57;;;;;;;;;54.75;40.25;;;;;3.04;56.88;40792.50;4996983;28;45628;-87
2022/12/15 06:51:24;;;;;;;;;47.25;40.00;;;;;2.63;56.76;40465.28;4998679;28;47290;-87
2022/12/15 06:53:52;;;;;;;;;50.75;40.25;;;;;2.75;56.92;40471.38;5018128;28;46935;-90
2022/12/15 06:56:32;;;;;;;;;53.00;44.00;;;;;3.08;56.87;40457.88;4997401;28;45562;-87
2022/12/15 06:58:58;;;;;;;;;53.75;45.00;;;;;3.00;57.05;40267.97;5002443;28;45699;-87
2022/12/15 07:01:24;;;;;;;;;54.75;44.00;;;;;3.31;56.58;40315.88;5024614;28;45849;-87
2022/12/15 07:03:51;;;;;;;;;48.00;41.75;;;;;3.20;56.75;40508.03;5023183;28;45719;-86
2022/12/15 07:06:17;;;;;;;;;55.50;43.25;;;;;3.08;56.97;40554.19;4998486;28;45699;-87
2022/12/15 07:08:47;;;;;;;;;48.75;39.25;;;;;2.96;56.81;40787.03;5020208;28;45580;-85
2022/12/15 07:11:12;;;;;;;;;53.75;44.00;;;;;3.00;56.99;40688.44;5023647;28;45996;-86
2022/12/15 07:13:39;;;;;;;;;55.50;41.50;;;;;3.22;56.57;41318.63;4998689;28;45563;-87
2022/12/15 07:16:06;;;;;;;;;50.75;42.25;;;;;3.15;56.68;41846.09;5024891;28;45560;-86
2022/12/15 07:18:32;;;;;;;;;57.25;44.75;;;;;2.65;56.26;42073.63;5001199;28;45673;-86
2022/12/15 07:21:06;;;;;;;;;52.75;42.75;;;;;3.17;56.65;42280.97;5020629;28;46234;-86
2022/12/15 07:23:32;;;;;;;;;47.25;41.00;;;;;2.72;56.40;42125.56;5014364;28;45483;-87
2022/12/15 07:26:00;;;;;;;;;51.25;42.25;;;;;3.17;56.67;42088.56;5015080;28;45510;-86
2022/12/15 07:28:26;;;;;;;;;52.50;42.25;;;;;2.66;56.62;41991.78;5000725;28;45647;-86
2022/12/15 07:30:51;;;;;;;;;55.00;45.00;;;;;2.67;56.81;41950.66;5018766;28;46706;-86
2022/12/15 07:33:16;;;;;;;;;58.25;44.00;;;;;2.87;56.55;41791.50;5005152;28;45697;-86
2022/12/15 07:35:42;;;;;;;;;54.50;43.25;;;;;3.09;56.81;41843.84;5018208;28;45554;-86
2022/12/15 07:38:07;;;;;;;;;56.50;44.25;;;;;2.85;56.85;41434.69;5018118;28;45549;-85
2022/12/15 07:40:33;;;;;;;;;47.50;41.00;;;;;2.78;57.02;41486.94;5000484;28;47373;-85
2022/12/15 07:42:58;;;;;;;;;56.00;45.75;;;;;2.82;56.68;41510.28;5019138;28;45502;-85
2022/12/15 07:45:24;;;;;;;;;48.00;42.75;;;;;2.84;56.31;41680.34;4999078;28;45635;-85
2022/12/15 07:47:50;;;;;;;;;55.75;46.25;;;;;3.20;56.62;41379.41;5021913;28;46548;-85
2022/12/15 07:50:17;;;;;;;;;51.50;43.75;;;;;3.03;56.49;41214.56;5001216;28;47911;-86
2022/12/15 07:52:42;;;;;;;;;51.25;41.00;;;;;2.99;56.47;40910.75;5020032;28;45535;-86
2022/12/15 07:55:07;;;;;;;;;55.00;46.25;;;;;2.88;56.45;40996.06;5007301;28;45512;-85
2022/12/15 07:57:33;;;;;;;;;57.50;47.00;;;;;2.69;56.61;40270.06;5002000;28;45840;-86
2022/12/15 07:59:58;;;;;;;;;49.50;41.50;;;;;3.23;56.20;40069.22;4998779;28;48686;-85
2022/12/15 08:02:23;;;;;;;;;61.25;47.75;;;;;2.88;56.14;40174.13;4997966;28;46011;-86
2022/12/15 08:04:49;;;;;;;;;50.50;39.75;;;;;3.03;56.05;39666.28;5005554;28;45717;-85
2022/12/15 08:07:14;;;;;;;;;43.00;38.25;;;;;2.85;56.13;39443.56;5026435;28;45497;-86
2022/12/15 08:09:39;;;;;;;;;55.00;44.50;;;;;3.34;56.47;38943.47;5021606;28;45572;-86
2022/12/15 08:12:05;;;;;;;;;57.25;47.50;;;;;2.92;56.10;38850.06;5018042;28;45690;-85
2022/12/15 08:14:32;;;;;;;;;44.50;40.25;;;;;3.22;55.82;38799.91;5001027;28;45681;-86
2022/12/15 08:16:58;;;;;;;;;57.00;43.50;;;;;3.58;55.77;39039.97;5021102;28;45548;-86
2022/12/15 08:19:23;;;;;;;;;53.75;44.00;;;;;3.55;55.83;39105.66;5020384;28;45493;-86
2022/12/15 08:21:48;;;;;;;;;56.75;46.50;;;;;3.47;55.51;38884.75;5004673;28;45523;-86
2022/12/15 08:24:15;;;;;;;;;55.25;44.25;;;;;3.79;55.42;38389.84;5019664;28;46143;-86
2022/12/15 08:26:42;;;;;;;;;49.50;40.25;;;;;3.55;55.67;38078.28;5004404;28;45526;-86
2022/12/15 08:29:11;;;;;;;;;55.00;45.00;;;;;3.91;55.75;38821.25;5000482;28;48445;-87
2022/12/15 08:31:37;;;;;;;;;57.50;46.50;;;;;3.73;55.09;39050.44;5004485;28;45674;-86
2022/12/15 08:34:04;;;;;;;;;48.25;42.25;;;;;3.95;55.16;39197.91;5000743;28;45751;-86
2022/12/15 08:36:30;;;;;;;;;55.50;43.50;;;;;3.80;54.74;39288.97;5020911;28;45476;-87
2022/12/15 08:38:58;;;;;;;;;54.75;44.50;;;;;4.02;55.02;38896.41;5001579;28;47235;-86
2022/12/15 08:41:26;;;;;;;;;52.50;44.50;;;;;3.99;54.59;39896.31;5002594;28;45936;-86
2022/12/15 08:43:52;;;;;;;;;57.00;45.75;;;;;3.83;54.61;39443.53;4995672;28;45740;-87
2022/12/15 08:46:21;;;;;;;;;54.75;46.50;;;;;3.66;54.92;39390.38;5013215;28;45462;-86
2022/12/15 08:48:47;;;;;;;;;52.25;41.25;;;;;3.53;54.93;39420.81;5015221;28;48034;-87
2022/12/15 08:51:13;;;;;;;;;57.00;46.50;;;;;3.87;54.56;39418.16;4993936;28;45514;-86
2022/12/15 08:53:38;;;;;;;;;55.25;43.00;;;;;3.07;54.26;40008.50;5020185;28;45592;-86
2022/12/15 08:56:09;;;;;;;;;58.75;46.00;;;;;4.08;54.41;40125.78;5027310;28;45552;-86
2022/12/15 08:58:35;;;;;;;;;57.50;46.25;;;;;3.92;54.48;40073.47;4999478;28;47127;-86
2022/12/15 09:01:02;;;;;;;;;53.00;42.75;;;;;3.92;54.54;40333.16;4998709;28;45445;-86
2022/12/15 09:03:28;;;;;;;;;62.50;45.75;;;;;3.81;54.55;40146.41;5012199;28;45657;-86
2022/12/15 09:05:53;;;;;;;;;54.50;43.50;;;;;3.76;54.61;40607.59;5027078;28;45932;-86
2022/12/15 09:08:18;;;;;;;;;57.50;47.75;;;;;3.25;54.65;40833.03;5017023;28;45500;-86
2022/12/15 09:10:44;;;;;;;;;58.25;47.50;;;;;4.04;55.07;39853.13;5015546;28;45536;-86
2022/12/15 09:13:09;;;;;;;;;58.75;47.25;;;;;3.57;54.47;40066.91;5029465;28;45557;-86
2022/12/15 09:15:35;;;;;;;;;57.00;48.00;;;;;4.01;54.71;39778.28;5018848;28;45591;-86
2022/12/15 09:18:00;;;;;;;;;58.50;46.00;;;;;3.69;54.45;39818.53;4999995;28;48462;-88
2022/12/15 09:20:25;;;;;;;;;60.75;48.75;;;;;4.20;54.85;39259.25;5017585;28;45888;-88
2022/12/15 09:22:51;;;;;;;;;56.00;43.50;;;;;3.40;54.86;38415.59;5017109;28;46788;-88
2022/12/15 09:25:16;;;;;;;;;53.50;45.00;;;;;4.09;54.34;38410.16;5016638;28;45737;-87
2022/12/15 09:27:41;;;;;;;;;53.75;46.00;;;;;3.76;54.65;38387.78;5022117;28;46181;-88
2022/12/15 09:30:08;;;;;;;;;50.50;44.00;;;;;3.96;54.15;38250.66;5004722;28;45479;-87
2022/12/15 09:32:33;;;;;;;;;58.25;46.00;;;;;4.25;54.42;38088.41;4999570;28;45534;-89
2022/12/15 09:34:58;;;;;;;;;60.75;48.75;;;;;4.25;54.17;38168.91;4992537;28;47020;-91
2022/12/15 09:37:24;;;;;;;;;58.75;45.25;;;;;4.39;53.92;37765.50;4992094;28;47428;-88
2022/12/15 09:39:49;;;;;;;;;55.25;43.00;;;;;3.60;54.42;37713.00;4999253;28;45523;-89
2022/12/15 09:42:25;;;;;;;;;59.75;48.25;;;;;4.49;54.24;37613.47;5017994;28;45848;-89
2022/12/15 09:45:20;;;;;;;;;56.25;45.50;;;;;4.72;54.20;36789.06;5006902;28;45640;-90
2022/12/15 09:47:59;;;;;;;;;53.00;41.75;;;;;4.80;53.66;36794.69;4994419;28;47543;-90
2022/12/15 09:50:37;;;;;;;;;57.75;48.00;;;;;4.80;53.76;36835.91;4991709;28;45506;-90
2022/12/15 09:53:07;;;;;;;;;54.00;44.00;;;;;5.00;52.84;36807.25;5002823;28;46506;-90
2022/12/15 09:55:32;;;;;;;;;56.50;47.00;;;;;4.36;53.19;36766.25;5024432;28;46944;-90
2022/12/15 09:58:02;;;;;;;;;58.00;45.50;;;;;5.14;53.03;36483.75;5004555;28;46836;-89
2022/12/15 10:00:43;;;;;;;;;56.25;44.00;;;;;5.22;52.56;36488.66;5004810;28;45575;-90
2022/12/15 10:03:33;;;;;;;;;53.25;44.50;;;;;5.27;51.69;36491.94;5009820;28;46947;-89
2022/12/15 10:06:18;;;;;;;;;59.75;47.75;;;;;5.24;52.31;36489.97;5007034;28;45603;-89
2022/12/15 10:08:46;;;;;;;;;55.50;45.75;;;;;5.37;52.32;36498.19;5014633;28;47392;-89
2022/12/15 10:11:20;;;;;;;;;56.25;44.75;;;;;5.20;52.42;36573.16;5003866;28;45646;-90
2022/12/15 10:14:14;;;;;;;;;55.50;44.25;;;;;5.46;52.40;36504.09;5023311;28;45560;-90
2022/12/15 10:16:58;;;;;;;;;57.25;46.25;;;;;5.49;52.19;36506.06;5021151;28;45605;-90
2022/12/15 10:20:13;;;;;;;;;51.00;41.00;;;;;5.56;51.70;36177.34;5001949;28;47554;-89
2022/12/15 10:22:38;;;;;;;;;56.00;45.00;;;;;5.31;51.94;35828.91;5021906;28;45371;-89
2022/12/15 10:25:21;;;;;;;;;54.75;45.50;;;;;5.69;51.50;35852.81;5004219;28;45416;-89
2022/12/15 10:27:55;;;;;;;;;52.50;40.75;;;;;5.76;51.69;35857.31;5012516;28;45345;-89
2022/12/15 10:30:21;;;;;;;;;54.25;44.75;;;;;5.66;51.47;35850.84;5020321;28;45698;-87
2022/12/15 10:32:49;;;;;;;;;56.50;43.75;;;;;5.85;51.30;35862.78;5022098;28;45441;-88
2022/12/15 10:35:19;;;;;;;;;53.50;45.00;;;;;5.92;51.35;35867.31;5015205;28;45654;-88
2022/12/15 10:37:44;;;;;;;;;55.25;45.00;;;;;5.55;50.84;35844.09;5000861;28;45487;-88
2022/12/15 10:40:16;;;;;;;;;56.25;45.00;;;;;6.01;51.16;36206.31;5019153;28;46389;-88
2022/12/15 10:42:48;;;;;;;;;53.75;41.50;;;;;5.86;50.81;36530.00;5004406;28;47156;-91
2022/12/15 10:45:37;;;;;;;;;49.00;40.25;;;;;6.12;50.50;35880.25;5008027;28;45746;-86
2022/12/15 10:48:05;;;;;;;;;55.75;45.75;;;;;5.98;50.64;36204.38;4995287;28;45451;-88
2022/12/15 10:50:32;;;;;;;;;55.75;43.50;;;;;5.69;50.82;35852.81;5020948;28;46213;-89
2022/12/15 10:52:58;;;;;;;;;56.00;44.75;;;;;6.22;50.51;35886.38;5011205;28;45548;-87
2022/12/15 10:55:36;;;;;;;;;53.75;41.25;;;;;6.22;50.46;36558.22;5012419;28;45522;-88
2022/12/15 10:58:03;;;;;;;;;54.25;45.00;;;;;6.25;50.70;36555.00;4991123;28;45756;-87
2022/12/15 11:00:31;;;;;;;;;55.75;46.25;;;;;6.27;50.66;36272.09;4998309;28;45808;-92
2022/12/15 11:02:57;;;;;;;;;56.25;43.25;;;;;5.84;50.63;36528.38;5004575;28;45588;-93
2022/12/15 11:05:24;;;;;;;;;55.75;44.25;;;;;6.12;50.53;36213.16;4998989;28;45447;-93
2022/12/15 11:07:54;;;;;;;;;51.75;40.00;;;;;6.17;50.05;36216.44;5002740;28;45738;-93
2022/12/15 11:10:19;;;;;;;;;55.00;42.75;;;;;6.49;50.15;35903.19;5013865;28;48421;-91
2022/12/15 11:12:53;;;;;;;;;55.00;45.50;;;;;5.28;50.07;36082.09;4998995;28;45672;-93
2022/12/15 11:15:22;;;;;;;;;54.00;44.25;;;;;6.61;50.11;35577.13;5000780;28;45697;-92
2022/12/15 11:18:15;;;;;;;;;51.25;40.50;;;;;6.58;50.13;35952.94;5023131;28;45335;-92
2022/12/15 11:20:49;;;;;;;;;59.50;47.50;;;;;5.50;49.92;36173.75;5107173;22;47355;-91
2022/12/15 11:23:31;;;;;;;;;53.50;43.75;;;;;6.09;49.92;36544.81;5057639;28;45470;-87
2022/12/15 11:29:13;;;;;;;;;57.25;44.75;;;;;6.54;49.95;37339.50;5025502;22;58175;-91
2022/12/15 11:38:31;;;;;;;;;54.25;44.75;;;;;6.46;49.71;38491.25;5157226;22;45281;-92
2022/12/15 11:45:13;;;;;;;;;54.25;43.00;;;;;6.38;49.80;39940.63;5038939;28;45800;-91
2022/12/15 11:48:18;;;;;;;;;54.75;44.00;;;;;5.45;49.55;40519.13;4980897;28;45404;-93
2022/12/15 11:51:12;;;;;;;;;48.75;38.50;;;;;6.01;49.38;41110.72;4922756;28;45715;-94
2022/12/15 11:53:54;;;;;;;;;52.00;43.00;;;;;6.34;49.27;41470.97;4923267;28;45440;-94
2022/12/15 11:56:35;;;;;;;;;53.25;42.00;;;;;5.46;49.26;41389.22;4935073;28;48319;-94
2022/12/15 11:59:45;;;;;;;;;49.75;40.25;;;;;6.43;49.40;41271.22;4924142;28;45418;-95
2022/12/15 12:02:28;;;;;;;;;54.50;40.25;;;;;6.49;48.99;41745.56;4899993;29;45442;-91
2022/12/15 12:04:56;;;;;;;;;51.25;41.25;;;;;6.55;49.03;41721.31;4898176;28;45804;-93
2022/12/15 12:07:37;;;;;;;;;55.75;38.00;;;;;6.65;48.82;41130.47;4899959;29;45582;-93
2022/12/15 12:10:28;;;;;;;;;51.50;40.75;;;;;6.53;48.51;40652.53;4900466;29;45367;-93
2022/12/15 12:13:03;;;;;;;;;56.25;42.25;;;;;6.91;47.67;41274.50;4886723;29;45653;-93
2022/12/15 12:15:45;;;;;;;;;50.75;42.00;;;;;6.49;47.41;41098.63;4891039;29;45650;-93
2022/12/15 12:18:29;;;;;;;;;50.25;39.50;;;;;7.09;48.01;40961.34;4899352;29;45539;-93
2022/12/15 12:21:09;;;;;;;;;52.00;39.25;;;;;6.86;47.40;41777.19;4898489;28;45539;-93
2022/12/15 12:23:55;;;;;;;;;50.00;39.75;;;;;7.22;47.06;41983.84;4945525;28;45321;-93
2022/12/15 12:26:24;;;;;;;;;47.25;38.75;;;;;7.33;46.60;42219.34;4977657;28;45929;-94
2022/12/15 12:29:01;;;;;;;;;46.50;37.25;;;;;7.52;46.63;41096.56;4960707;28;47587;-91
2022/12/15 12:31:45;;;;;;;;;45.00;38.75;;;;;7.80;46.36;40703.72;4959460;28;45608;-91
2022/12/15 12:34:35;;;;;;;;;48.25;38.25;;;;;7.42;46.05;41438.91;4985910;28;45762;-91
2022/12/15 12:37:38;;;;;;;;;46.00;36.50;;;;;7.89;45.59;43170.06;5012139;28;45505;-96
2022/12/15 12:40:18;;;;;;;;;45.50;39.00;;;;;7.49;45.30;44507.50;5018203;28;48465;-92
2022/12/15 12:42:55;;;;;;;;;37.50;35.50;;;;;7.83;45.39;45481.59;5048876;28;45587;-93
2022/12/15 12:45:28;;;;;;;;;50.00;38.75;;;;;7.33;45.44;46681.75;5021004;28;45557;-92
2022/12/15 12:47:59;;;;;;;;;42.25;36.50;;;;;7.60;45.82;46891.63;5017156;28;46649;-92
2022/12/15 12:50:28;;;;;;;;;46.75;38.00;;;;;7.38;46.01;46539.38;5007908;28;47616;-92
2022/12/15 12:52:59;;;;;;;;;48.25;39.50;;;;;7.37;45.89;47113.66;5010334;28;45399;-93
2022/12/15 12:55:41;;;;;;;;;48.75;38.00;;;;;7.02;45.84;46622.56;5006235;28;45395;-91
2022/12/15 12:58:44;;;;;;;;;42.00;36.00;;;;;6.72;45.98;46974.53;5015862;28;45588;-93
2022/12/15 13:01:18;;;;;;;;;44.25;39.00;;;;;7.63;45.93;46519.91;4949934;28;47753;-91
2022/12/15 13:03:45;;;;;;;;;49.25;38.25;;;;;7.61;46.09;46829.66;4951678;28;45870;-91
2022/12/15 13:06:39;;;;;;;;;45.75;36.75;;;;;7.75;45.85;47294.13;4958694;28;45577;-92
2022/12/15 13:09:16;;;;;;;;;36.75;34.25;;;;;7.75;45.70;47788.47;4885494;29;45893;-92
2022/12/15 13:11:48;;;;;;;;;40.75;37.25;;;;;7.74;45.29;47991.88;4888293;29;47312;-92
2022/12/15 13:14:28;;;;;;;;;37.75;33.75;;;;;7.43;45.72;48020.97;4883979;29;45312;-92
2022/12/15 13:17:04;;;;;;;;;34.00;30.75;;;;;7.70;45.40;48808.00;4881351;29;45638;-92
2022/12/15 13:19:57;;;;;;;;;50.25;41.50;;;;;7.68;45.43;48851.22;4883101;29;46533;-93
2022/12/15 13:22:25;;;;;;;;;44.75;35.75;;;;;7.68;45.64;49128.81;4872368;29;48490;-92
2022/12/15 13:24:51;;;;;;;;;42.50;35.50;;;;;7.23;45.62;49040.94;4864641;29;45865;-92
2022/12/15 13:27:18;;;;;;;;;48.25;39.75;;;;;7.06;45.63;48924.22;4881969;29;45548;-92
2022/12/15 13:29:57;;;;;;;;;46.75;38.50;;;;;7.63;45.45;49587.97;4892990;29;45676;-91
2022/12/15 13:32:38;;;;;;;;;42.25;35.50;;;;;7.65;45.14;50173.78;4906006;28;46624;-93
2022/12/15 13:35:29;;;;;;;;;37.00;35.50;;;;;7.56;45.04;51082.53;4939914;28;45376;-94
2022/12/15 13:37:57;;;;;;;;;44.75;35.75;;;;;7.61;45.45;51118.50;4939887;28;45474;-93
2022/12/15 13:40:35;;;;;;;;;43.00;36.00;;;;;7.58;45.11;51514.00;4956161;28;45641;-92
2022/12/15 13:43:03;;;;;;;;;44.00;33.50;;;;;7.55;45.27;51883.75;4944909;28;48006;-91
2022/12/15 13:45:52;;;;;;;;;39.25;35.00;;;;;7.49;44.68;52477.78;4999231;28;45849;-90
2022/12/15 13:48:51;;;;;;;;;43.75;37.00;;;;;7.43;44.98;52328.63;5035859;28;45629;-94
2022/12/15 13:51:29;;;;;;;;;48.25;36.25;;;;;7.45;45.07;52924.75;5014605;28;45359;-93
2022/12/15 13:54:21;;;;;;;;;42.00;35.50;;;;;7.42;44.93;53446.47;5021841;28;47081;-93
2022/12/15 13:57:03;;;;;;;;;34.75;32.75;;;;;7.39;44.64;54250.81;5043544;28;45371;-93
2022/12/15 13:59:49;;;;;;;;;41.50;34.00;;;;;7.32;44.09;55235.34;5030185;28;45438;-90
2022/12/15 14:02:32;;;;;;;;;36.50;30.00;;;;;6.78;43.65;56134.78;5018863;28;45522;-90
2022/12/15 14:05:13;;;;;;;;;38.75;29.00;;;;;7.23;42.80;57045.44;5030717;28;45485;-90
2022/12/15 14:07:41;;;;;;;;;28.25;25.75;;;;;7.19;42.44;57881.03;5015293;28;45333;-93
2022/12/15 14:10:16;;;;;;;;;28.00;28.00;;;;;7.15;42.62;58349.53;5026952;28;45485;-93
2022/12/15 14:12:43;;;;;;;;;36.50;33.25;;;;;6.38;42.61;58410.75;5033064;28;45512;-92
2022/12/15 14:15:17;;;;;;;;;27.50;24.00;;;;;7.12;42.63;58692.13;5016445;28;48406;-92
2022/12/15 14:17:50;;;;;;;;;31.50;30.00;;;;;7.10;42.28;59109.72;5034383;28;45462;-92